PWSweather.com
Personal Weather Stations
Station Observations
KMIEASTT1
Tawas Bay, East Tawas, MI 48730

Tawas BayEast Tawas, MI 48730

Lat: 44.28, Lon: -83.48

Elevation: 600

Station Type: Davis VantagePro

http://www.tawasbayweather.com

High Low Average
Temperature 36.3°F2.4°C 31.6°F-0.2°C 34.6°F1.4°C
Dew Point 35.5°F1.9°C 28.4°F-2.0°C 31.1°F-0.5°C
Winds 24.0 mph 38.6 kmh Calm Calm 12.0 mph SW19.3 kmh SW
Wind Gusts 37.0 mph59.5 kmh -- 18.0 mph29.0 kmh
Humidity 97% 77% 87%
Pressure 29.97 in1014.9 mb 29.38 in994.9 mb -
Precipitation 0.00 in0.0 mm - -
Hour Temp Dew Point Humidity Winds Wind Gusts Pressure Precip Precip Rate Daily Precip Total
12:00 AM 30.5°F-0.8°C 27.9°F-2.3°C 90% Calm Calm 1.0 mph1.6 kmh 29.64 in1003.7 mb 0.09 in2.3 mm 0.00 in0.0 mm 0.09 in2.3 mm
12:15 AM 30.7°F-0.7°C 28.1°F-2.2°C 90% Calm Calm -- 29.62 in1003.0 mb 0.09 in2.3 mm 0.00 in0.0 mm 0.09 in2.3 mm
12:30 AM 30.9°F-0.6°C 28.6°F-1.9°C 91% Calm Calm -- 29.60 in1002.4 mb 0.09 in2.3 mm 0.00 in0.0 mm 0.09 in2.3 mm
12:45 AM 31.3°F-0.4°C 29.3°F-1.5°C 92% Calm Calm -- 29.61 in1002.7 mb 0.15 in3.8 mm 0.24 in6.1 mm 0.15 in3.8 mm
01:00 AM 31.6°F-0.2°C 29.8°F-1.2°C 93% Calm Calm -- 29.60 in1002.4 mb 0.16 in4.1 mm 0.01 in0.3 mm 0.16 in4.1 mm
01:15 AM 31.6°F-0.2°C 29.8°F-1.2°C 93% Calm Calm -- 29.60 in1002.4 mb 0.20 in5.1 mm 0.16 in4.1 mm 0.20 in5.1 mm
01:30 AM 31.7°F-0.2°C 30.2°F-1.0°C 94% Calm Calm -- 29.57 in1001.4 mb 0.20 in5.1 mm 0.00 in0.0 mm 0.20 in5.1 mm
01:45 AM 32.0°F0.0°C 30.5°F-0.8°C 94% Calm Calm -- 29.56 in1001.0 mb 0.22 in5.6 mm 0.08 in2.0 mm 0.22 in5.6 mm
02:00 AM 32.1°F0.1°C 30.6°F-0.8°C 94% Calm Calm -- 29.54 in1000.3 mb 0.10 in2.5 mm 0.00 in0.0 mm 0.22 in5.6 mm
02:15 AM 32.3°F0.2°C 31.0°F-0.6°C 95% Calm Calm -- 29.52 in999.7 mb 0.12 in3.0 mm 0.08 in2.0 mm 0.24 in6.1 mm
02:30 AM 32.6°F0.3°C 31.3°F-0.4°C 95% Calm Calm -- 29.50 in999.0 mb 0.06 in1.5 mm 0.00 in0.0 mm 0.24 in6.1 mm
02:45 AM 32.6°F0.3°C 31.3°F-0.4°C 95% Calm Calm -- 29.49 in998.6 mb 0.06 in1.5 mm 0.00 in0.0 mm 0.24 in6.1 mm
03:00 AM 32.6°F0.3°C 31.3°F-0.4°C 95% Calm Calm -- 29.48 in998.3 mb 0.00 in0.0 mm 0.00 in0.0 mm 0.24 in6.1 mm
03:15 AM 32.7°F0.4°C 31.4°F-0.3°C 95% Calm Calm -- 29.46 in997.6 mb 0.04 in1.0 mm 0.16 in4.1 mm 0.28 in7.1 mm
03:30 AM 32.9°F0.5°C 31.9°F-0.1°C 96% Calm Calm -- 29.45 in997.3 mb 0.02 in0.5 mm 0.00 in0.0 mm 0.28 in7.1 mm
03:45 AM 33.0°F0.6°C 32.0°F0.0°C 96% Calm Calm -- 29.43 in996.6 mb 0.02 in0.5 mm 0.00 in0.0 mm 0.28 in7.1 mm
04:00 AM 33.1°F0.6°C 32.1°F0.1°C 96% Calm Calm -- 29.42 in996.3 mb 0.02 in0.5 mm 0.00 in0.0 mm 0.28 in7.1 mm
04:15 AM 33.4°F0.8°C 32.4°F0.2°C 96% Calm Calm -- 29.41 in995.9 mb 0.02 in0.5 mm 0.00 in0.0 mm 0.28 in7.1 mm
04:30 AM 33.7°F0.9°C 32.7°F0.4°C 96% Calm Calm -- 29.40 in995.6 mb 0.00 in0.0 mm 0.00 in0.0 mm 0.28 in7.1 mm
04:45 AM 33.7°F0.9°C 32.9°F0.5°C 97% Calm Calm -- 29.39 in995.3 mb 0.01 in0.3 mm 0.04 in1.0 mm 0.29 in7.4 mm
05:00 AM 33.8°F1.0°C 33.0°F0.6°C 97% Calm Calm -- 29.39 in995.3 mb 0.02 in0.5 mm 0.01 in0.3 mm 0.30 in7.6 mm
05:15 AM 33.8°F1.0°C 33.0°F0.6°C 97% 1.0 mph SSE1.6 kmh SSE 2.0 mph3.2 kmh 29.38 in994.9 mb 0.04 in1.0 mm 0.08 in2.0 mm 0.32 in8.1 mm
05:30 AM 33.8°F1.0°C 33.0°F0.6°C 97% Calm Calm 2.0 mph3.2 kmh 29.38 in994.9 mb 0.05 in1.3 mm 0.04 in1.0 mm 0.33 in8.4 mm
05:45 AM 34.4°F1.3°C 33.6°F0.9°C 97% 7.0 mph SSW11.3 kmh SSW 7.0 mph11.3 kmh 29.38 in994.9 mb 0.06 in1.5 mm 0.04 in1.0 mm 0.34 in8.6 mm
06:00 AM 34.9°F1.6°C 34.1°F1.2°C 97% 9.0 mph SSW14.5 kmh SSW 10.0 mph16.1 kmh 29.38 in994.9 mb 0.05 in1.3 mm 0.00 in0.0 mm 0.34 in8.6 mm
06:15 AM 35.0°F1.7°C 34.2°F1.2°C 97% 15.0 mph S24.1 kmh S 15.0 mph24.1 kmh 29.38 in994.9 mb 0.06 in1.5 mm 0.04 in1.0 mm 0.35 in8.9 mm
06:30 AM 36.1°F2.3°C 35.3°F1.8°C 97% 18.0 mph SW29.0 kmh SW 22.0 mph35.4 kmh 29.38 in994.9 mb 0.03 in0.8 mm 0.00 in0.0 mm 0.35 in8.9 mm
06:45 AM 36.3°F2.4°C 35.5°F1.9°C 97% 17.0 mph SW27.4 kmh SW 25.0 mph40.2 kmh 29.39 in995.3 mb 0.03 in0.8 mm 0.00 in0.0 mm 0.35 in8.9 mm
07:00 AM 36.3°F2.4°C 35.5°F1.9°C 97% 16.0 mph SW25.7 kmh SW 26.0 mph41.8 kmh 29.40 in995.6 mb 0.01 in0.3 mm 0.00 in0.0 mm 0.35 in8.9 mm
07:15 AM 36.2°F2.3°C 35.2°F1.8°C 96% 17.0 mph SW27.4 kmh SW 25.0 mph40.2 kmh 29.40 in995.6 mb 0.01 in0.3 mm 0.00 in0.0 mm 0.35 in8.9 mm
07:30 AM 36.1°F2.3°C 35.1°F1.7°C 96% 13.0 mph SSW20.9 kmh SSW 22.0 mph35.4 kmh 29.39 in995.3 mb 0.00 in0.0 mm 0.00 in0.0 mm 0.35 in8.9 mm
07:45 AM 36.2°F2.3°C 35.2°F1.8°C 96% 15.0 mph SW24.1 kmh SW 25.0 mph40.2 kmh 29.38 in994.9 mb 0.00 in0.0 mm 0.00 in0.0 mm 0.35 in8.9 mm
08:00 AM 36.0°F2.2°C 34.7°F1.5°C 95% 17.0 mph SSW27.4 kmh SSW 23.0 mph37.0 kmh 29.38 in994.9 mb 0.00 in0.0 mm 0.00 in0.0 mm 0.35 in8.9 mm
08:15 AM 35.6°F2.0°C 34.1°F1.2°C 94% 18.0 mph SW29.0 kmh SW 25.0 mph40.2 kmh 29.39 in995.3 mb 0.00 in0.0 mm 0.00 in0.0 mm 0.35 in8.9 mm
08:30 AM 35.3°F1.8°C 33.8°F1.0°C 94% 15.0 mph SW24.1 kmh SW 24.0 mph38.6 kmh 29.39 in995.3 mb 0.01 in0.3 mm 0.04 in1.0 mm 0.36 in9.1 mm
08:45 AM 35.5°F1.9°C 34.0°F1.1°C 94% 19.0 mph SSW30.6 kmh SSW 24.0 mph38.6 kmh 29.40 in995.6 mb 0.01 in0.3 mm 0.00 in0.0 mm 0.36 in9.1 mm
09:00 AM 35.9°F2.2°C 33.8°F1.0°C 92% 20.0 mph SW32.2 kmh SW 26.0 mph41.8 kmh 29.41 in995.9 mb 0.01 in0.3 mm 0.00 in0.0 mm 0.36 in9.1 mm
09:15 AM 35.8°F2.1°C 33.4°F0.8°C 91% 17.0 mph SW27.4 kmh SW 24.0 mph38.6 kmh 29.42 in996.3 mb 0.01 in0.3 mm 0.00 in0.0 mm 0.36 in9.1 mm
09:30 AM 35.7°F2.1°C 33.6°F0.9°C 92% 22.0 mph SW35.4 kmh SW 24.0 mph38.6 kmh 29.42 in996.3 mb 0.00 in0.0 mm 0.00 in0.0 mm 0.36 in9.1 mm
09:45 AM 35.9°F2.2°C 33.3°F0.7°C 90% 21.0 mph SW33.8 kmh SW 27.0 mph43.5 kmh 29.43 in996.6 mb 0.00 in0.0 mm 0.00 in0.0 mm 0.36 in9.1 mm
10:00 AM 36.1°F2.3°C 33.5°F0.8°C 90% 20.0 mph WSW32.2 kmh WSW 31.0 mph49.9 kmh 29.44 in997.0 mb 0.00 in0.0 mm 0.00 in0.0 mm 0.36 in9.1 mm
10:15 AM 35.6°F2.0°C 33.0°F0.6°C 90% 18.0 mph WSW29.0 kmh WSW 24.0 mph38.6 kmh 29.45 in997.3 mb 0.00 in0.0 mm 0.00 in0.0 mm 0.36 in9.1 mm
10:30 AM 35.5°F1.9°C 32.9°F0.5°C 90% 24.0 mph SW38.6 kmh SW 26.0 mph41.8 kmh 29.47 in998.0 mb 0.00 in0.0 mm 0.00 in0.0 mm 0.36 in9.1 mm
10:45 AM 35.0°F1.7°C 32.6°F0.3°C 91% 21.0 mph WSW33.8 kmh WSW 25.0 mph40.2 kmh 29.48 in998.3 mb 0.00 in0.0 mm 0.00 in0.0 mm 0.36 in9.1 mm
11:00 AM 34.9°F1.6°C 32.5°F0.3°C 91% 21.0 mph WSW33.8 kmh WSW 27.0 mph43.5 kmh 29.49 in998.6 mb 0.00 in0.0 mm 0.00 in0.0 mm 0.36 in9.1 mm
11:15 AM 34.5°F1.4°C 32.2°F0.1°C 91% 20.0 mph WSW32.2 kmh WSW 27.0 mph43.5 kmh 29.50 in999.0 mb 0.00 in0.0 mm 0.00 in0.0 mm 0.36 in9.1 mm
11:30 AM 34.8°F1.6°C 31.6°F-0.2°C 88% 23.0 mph WSW37.0 kmh WSW 29.0 mph46.7 kmh 29.51 in999.3 mb 0.00 in0.0 mm 0.00 in0.0 mm 0.36 in9.1 mm
11:45 AM 34.6°F1.4°C 31.4°F-0.3°C 88% 17.0 mph WSW27.4 kmh WSW 24.0 mph38.6 kmh 29.52 in999.7 mb 0.00 in0.0 mm 0.00 in0.0 mm 0.36 in9.1 mm
12:00 PM 34.6°F1.4°C 30.9°F-0.6°C 86% 20.0 mph WSW32.2 kmh WSW 33.0 mph53.1 kmh 29.53 in1000.0 mb 0.00 in0.0 mm 0.00 in0.0 mm 0.36 in9.1 mm
12:15 PM 34.5°F1.4°C 30.8°F-0.7°C 86% 17.0 mph SW27.4 kmh SW 32.0 mph51.5 kmh 29.54 in1000.3 mb 0.00 in0.0 mm 0.00 in0.0 mm 0.36 in9.1 mm
12:30 PM 34.3°F1.3°C 30.6°F-0.8°C 86% 21.0 mph WSW33.8 kmh WSW 31.0 mph49.9 kmh 29.55 in1000.7 mb 0.00 in0.0 mm 0.00 in0.0 mm 0.36 in9.1 mm
12:45 PM 34.3°F1.3°C 30.3°F-0.9°C 85% 21.0 mph W33.8 kmh W 28.0 mph45.1 kmh 29.57 in1001.4 mb 0.00 in0.0 mm 0.00 in0.0 mm 0.36 in9.1 mm
01:00 PM 34.2°F1.2°C 30.2°F-1.0°C 85% 12.0 mph W19.3 kmh W 27.0 mph43.5 kmh 29.58 in1001.7 mb 0.00 in0.0 mm 0.00 in0.0 mm 0.36 in9.1 mm
01:15 PM 34.1°F1.2°C 29.5°F-1.4°C 83% 19.0 mph W30.6 kmh W 28.0 mph45.1 kmh 29.59 in1002.0 mb 0.00 in0.0 mm 0.00 in0.0 mm 0.36 in9.1 mm
01:30 PM 33.9°F1.1°C 29.3°F-1.5°C 83% 23.0 mph WSW37.0 kmh WSW 35.0 mph56.3 kmh 29.60 in1002.4 mb 0.00 in0.0 mm 0.00 in0.0 mm 0.36 in9.1 mm
01:45 PM 33.8°F1.0°C 28.9°F-1.7°C 82% 21.0 mph W33.8 kmh W 29.0 mph46.7 kmh 29.62 in1003.0 mb 0.00 in0.0 mm 0.00 in0.0 mm 0.36 in9.1 mm
02:00 PM 34.0°F1.1°C 28.8°F-1.8°C 81% 22.0 mph W35.4 kmh W 37.0 mph59.5 kmh 29.62 in1003.0 mb 0.00 in0.0 mm 0.00 in0.0 mm 0.36 in9.1 mm
02:15 PM 34.1°F1.2°C 28.9°F-1.7°C 81% 13.0 mph WSW20.9 kmh WSW 25.0 mph40.2 kmh 29.63 in1003.4 mb 0.00 in0.0 mm 0.00 in0.0 mm 0.36 in9.1 mm
02:30 PM 33.9°F1.1°C 28.7°F-1.8°C 81% 21.0 mph W33.8 kmh W 31.0 mph49.9 kmh 29.63 in1003.4 mb 0.00 in0.0 mm 0.00 in0.0 mm 0.36 in9.1 mm
02:45 PM 33.9°F1.1°C 29.0°F-1.7°C 82% 19.0 mph WSW30.6 kmh WSW 24.0 mph38.6 kmh 29.64 in1003.7 mb 0.00 in0.0 mm 0.00 in0.0 mm 0.36 in9.1 mm
03:00 PM 34.2°F1.2°C 29.0°F-1.7°C 81% 15.0 mph W24.1 kmh W 30.0 mph48.3 kmh 29.65 in1004.1 mb 0.00 in0.0 mm 0.00 in0.0 mm 0.36 in9.1 mm
03:15 PM 34.1°F1.2°C 29.2°F-1.6°C 82% 22.0 mph W35.4 kmh W 28.0 mph45.1 kmh 29.65 in1004.1 mb 0.00 in0.0 mm 0.00 in0.0 mm 0.36 in9.1 mm
03:30 PM 34.3°F1.3°C 29.4°F-1.4°C 82% 18.0 mph W29.0 kmh W 28.0 mph45.1 kmh 29.66 in1004.4 mb 0.00 in0.0 mm 0.00 in0.0 mm 0.36 in9.1 mm
03:45 PM 34.3°F1.3°C 29.4°F-1.4°C 82% 13.0 mph WNW20.9 kmh WNW 20.0 mph32.2 kmh 29.68 in1005.1 mb 0.00 in0.0 mm 0.00 in0.0 mm 0.36 in9.1 mm
04:00 PM 34.5°F1.4°C 29.3°F-1.5°C 81% 14.0 mph W22.5 kmh W 28.0 mph45.1 kmh 29.69 in1005.4 mb 0.00 in0.0 mm 0.00 in0.0 mm 0.36 in9.1 mm
04:15 PM 34.8°F1.6°C 29.0°F-1.7°C 79% 13.0 mph WSW20.9 kmh WSW 32.0 mph51.5 kmh 29.70 in1005.8 mb 0.00 in0.0 mm 0.00 in0.0 mm 0.36 in9.1 mm
04:30 PM 34.8°F1.6°C 29.0°F-1.7°C 79% 19.0 mph W30.6 kmh W 23.0 mph37.0 kmh 29.71 in1006.1 mb 0.00 in0.0 mm 0.00 in0.0 mm 0.36 in9.1 mm
04:45 PM 35.1°F1.7°C 28.9°F-1.7°C 78% 13.0 mph WNW20.9 kmh WNW 29.0 mph46.7 kmh 29.72 in1006.4 mb 0.00 in0.0 mm 0.00 in0.0 mm 0.36 in9.1 mm
05:00 PM 35.1°F1.7°C 28.6°F-1.9°C 77% 21.0 mph WSW33.8 kmh WSW 24.0 mph38.6 kmh 29.74 in1007.1 mb 0.00 in0.0 mm 0.00 in0.0 mm 0.36 in9.1 mm
05:15 PM 34.9°F1.6°C 28.8°F-1.8°C 78% 12.0 mph W19.3 kmh W 21.0 mph33.8 kmh 29.75 in1007.5 mb 0.00 in0.0 mm 0.00 in0.0 mm 0.36 in9.1 mm
05:30 PM 34.9°F1.6°C 28.8°F-1.8°C 78% 13.0 mph WSW20.9 kmh WSW 23.0 mph37.0 kmh 29.76 in1007.8 mb 0.00 in0.0 mm 0.00 in0.0 mm 0.36 in9.1 mm
05:45 PM 35.1°F1.7°C 28.9°F-1.7°C 78% 8.0 mph NW12.9 kmh NW 15.0 mph24.1 kmh 29.77 in1008.1 mb 0.00 in0.0 mm 0.00 in0.0 mm 0.36 in9.1 mm
06:00 PM 34.8°F1.6°C 29.0°F-1.7°C 79% 7.0 mph WNW11.3 kmh WNW 18.0 mph29.0 kmh 29.79 in1008.8 mb 0.00 in0.0 mm 0.00 in0.0 mm 0.36 in9.1 mm
06:15 PM 34.7°F1.5°C 28.9°F-1.7°C 79% 9.0 mph W14.5 kmh W 21.0 mph33.8 kmh 29.80 in1009.1 mb 0.00 in0.0 mm 0.00 in0.0 mm 0.36 in9.1 mm
06:30 PM 34.6°F1.4°C 28.5°F-1.9°C 78% 16.0 mph W25.7 kmh W 23.0 mph37.0 kmh 29.81 in1009.5 mb 0.00 in0.0 mm 0.00 in0.0 mm 0.36 in9.1 mm
06:45 PM 34.5°F1.4°C 28.4°F-2.0°C 78% 9.0 mph WNW14.5 kmh WNW 19.0 mph30.6 kmh 29.83 in1010.2 mb 0.00 in0.0 mm 0.00 in0.0 mm 0.36 in9.1 mm
07:00 PM 34.5°F1.4°C 28.7°F-1.8°C 79% 9.0 mph NW14.5 kmh NW 16.0 mph25.7 kmh 29.83 in1010.2 mb 0.00 in0.0 mm 0.00 in0.0 mm 0.36 in9.1 mm
07:15 PM 34.7°F1.5°C 28.6°F-1.9°C 78% 17.0 mph W27.4 kmh W 22.0 mph35.4 kmh 29.84 in1010.5 mb 0.00 in0.0 mm 0.00 in0.0 mm 0.36 in9.1 mm
07:30 PM 34.7°F1.5°C 28.9°F-1.7°C 79% 3.0 mph W4.8 kmh W 13.0 mph20.9 kmh 29.85 in1010.8 mb 0.00 in0.0 mm 0.00 in0.0 mm 0.36 in9.1 mm
07:45 PM 34.9°F1.6°C 28.4°F-2.0°C 77% 10.0 mph W16.1 kmh W 20.0 mph32.2 kmh 29.86 in1011.2 mb 0.00 in0.0 mm 0.00 in0.0 mm 0.36 in9.1 mm
08:00 PM 34.9°F1.6°C 28.8°F-1.8°C 78% 8.0 mph WSW12.9 kmh WSW 18.0 mph29.0 kmh 29.87 in1011.5 mb 0.00 in0.0 mm 0.00 in0.0 mm 0.36 in9.1 mm
08:15 PM 35.0°F1.7°C 29.2°F-1.6°C 79% 18.0 mph W29.0 kmh W 19.0 mph30.6 kmh 29.88 in1011.9 mb 0.00 in0.0 mm 0.00 in0.0 mm 0.36 in9.1 mm
08:30 PM 34.9°F1.6°C 29.4°F-1.4°C 80% 5.0 mph WNW8.0 kmh WNW 10.0 mph16.1 kmh 29.89 in1012.2 mb 0.00 in0.0 mm 0.00 in0.0 mm 0.36 in9.1 mm
08:45 PM 35.0°F1.7°C 29.8°F-1.2°C 81% 12.0 mph W19.3 kmh W 19.0 mph30.6 kmh 29.90 in1012.5 mb 0.00 in0.0 mm 0.00 in0.0 mm 0.36 in9.1 mm
09:01 PM 35.2°F1.8°C 30.3°F-0.9°C 82% 4.0 mph W6.4 kmh W 16.0 mph25.7 kmh 29.91 in1012.9 mb 0.00 in0.0 mm 0.00 in0.0 mm 0.36 in9.1 mm
09:15 PM 35.3°F1.8°C 30.4°F-0.9°C 82% 10.0 mph WSW16.1 kmh WSW 13.0 mph20.9 kmh 29.91 in1012.9 mb 0.00 in0.0 mm 0.00 in0.0 mm 0.36 in9.1 mm
09:30 PM 35.4°F1.9°C 30.5°F-0.8°C 82% 6.0 mph W9.7 kmh W 14.0 mph22.5 kmh 29.92 in1013.2 mb 0.00 in0.0 mm 0.00 in0.0 mm 0.36 in9.1 mm
09:45 PM 35.7°F2.1°C 30.8°F-0.7°C 82% 7.0 mph W11.3 kmh W 15.0 mph24.1 kmh 29.92 in1013.2 mb 0.00 in0.0 mm 0.00 in0.0 mm 0.36 in9.1 mm
10:00 PM 35.8°F2.1°C 30.9°F-0.6°C 82% 10.0 mph WSW16.1 kmh WSW 16.0 mph25.7 kmh 29.92 in1013.2 mb 0.00 in0.0 mm 0.00 in0.0 mm 0.36 in9.1 mm
10:15 PM 36.0°F2.2°C 31.1°F-0.5°C 82% 4.0 mph WNW6.4 kmh WNW 15.0 mph24.1 kmh 29.92 in1013.2 mb 0.00 in0.0 mm 0.00 in0.0 mm 0.36 in9.1 mm
10:30 PM 36.2°F2.3°C 31.2°F-0.4°C 82% 11.0 mph WSW17.7 kmh WSW 17.0 mph27.4 kmh 29.92 in1013.2 mb 0.00 in0.0 mm 0.00 in0.0 mm 0.36 in9.1 mm
10:45 PM 36.2°F2.3°C 31.2°F-0.4°C 82% 9.0 mph WSW14.5 kmh WSW 18.0 mph29.0 kmh 29.93 in1013.5 mb 0.00 in0.0 mm 0.00 in0.0 mm 0.36 in9.1 mm
11:00 PM 36.1°F2.3°C 31.5°F-0.3°C 83% 13.0 mph WSW20.9 kmh WSW 18.0 mph29.0 kmh 29.94 in1013.9 mb 0.00 in0.0 mm 0.00 in0.0 mm 0.36 in9.1 mm
11:15 PM 36.0°F2.2°C 31.4°F-0.3°C 83% 10.0 mph W16.1 kmh W 19.0 mph30.6 kmh 29.95 in1014.2 mb 0.00 in0.0 mm 0.00 in0.0 mm 0.36 in9.1 mm
11:30 PM 35.8°F2.1°C 31.2°F-0.4°C 83% 9.0 mph WSW14.5 kmh WSW 20.0 mph32.2 kmh 29.95 in1014.2 mb 0.00 in0.0 mm 0.00 in0.0 mm 0.36 in9.1 mm
11:45 PM 35.9°F2.2°C 31.3°F-0.4°C 83% 13.0 mph WSW20.9 kmh WSW 19.0 mph30.6 kmh 29.95 in1014.2 mb 0.00 in0.0 mm 0.00 in0.0 mm 0.36 in9.1 mm